DGAA/ACC METAR and TAF weather

Enter ICAO airport designator
Station Type Date Time Source
DGAA METAR 2020/06/06 14:00 UTC NOAA

DGAA 061400Z 19013KT 9999 FEW030CB 29/25 Q1013 NOSIG


Station Type Date Time Source
DGAA Decoded METAR 2020/06/06 14:00 UTC NOAA

Accra, Ghana (DGAA) 05-36N 000-10W 69M
Jun 06, 2020 - 10:00 AM EDT / 2020.06.06 1400 UTC
Wind: from the S (190 degrees) at 15 MPH (13 KT):0
Visibility: greater than 7 mile(s):0
Sky conditions: mostly clear
Weather: Cumulonimbus clouds observed
Temperature: 84 F (29 C)
Dew Point: 77 F (25 C)
Relative Humidity: 79%
Pressure (altimeter): 29.91 in. Hg (1013 hPa)
ob: DGAA 061400Z 19013KT 9999 FEW030CB 29/25 Q1013 NOSIG
cycle: 14

Station Type Date Time Source
DGAA TAF 2020/06/06 12:22 UTC NOAA

TAF DGAA 061100Z 0612/0718 18015KT 9999 BKN020
TEMPO 0614/0618 TS FEW030CB
FM062300 27007KT CAVOK

Example: see airport list